createdAt,value
2023-03-06T00:00:56.090Z,29.10
2023-03-06T00:01:56.069Z,28.80
2023-03-06T00:02:56.028Z,30.70
2023-03-06T00:03:56.080Z,29.30
2023-03-06T00:04:56.013Z,29.80
2023-03-06T00:05:56.234Z,31.00
2023-03-06T00:06:55.984Z,29.60
2023-03-06T00:07:55.974Z,31.80
2023-03-06T00:08:55.958Z,30.80
2023-03-06T00:09:56.033Z,33.10
2023-03-06T00:10:55.959Z,33.30
2023-03-06T00:11:55.918Z,33.80
2023-03-06T00:12:55.932Z,32.50
2023-03-06T00:13:55.898Z,32.90
2023-03-06T00:14:55.887Z,32.50
2023-03-06T00:15:55.914Z,33.80
2023-03-06T00:16:55.860Z,33.30
2023-03-06T00:17:55.846Z,33.30
2023-03-06T00:18:55.840Z,35.30
2023-03-06T00:19:55.857Z,33.30
2023-03-06T00:20:55.820Z,33.10
2023-03-06T00:21:55.800Z,32.90
2023-03-06T00:22:55.774Z,34.10
2023-03-06T00:23:55.776Z,34.60
2023-03-06T00:24:55.778Z,34.30
2023-03-06T00:25:55.737Z,32.70
2023-03-06T00:26:55.726Z,33.80
2023-03-06T00:27:55.724Z,32.30
2023-03-06T00:28:55.696Z,33.20
2023-03-06T00:29:55.723Z,33.30
2023-03-06T00:30:55.666Z,33.10
2023-03-06T00:31:55.666Z,33.30
2023-03-06T00:32:55.646Z,34.70
2023-03-06T00:33:55.648Z,30.90
2023-03-06T00:34:55.658Z,33.00
2023-03-06T00:35:55.672Z,32.70
2023-03-06T00:36:55.587Z,33.20
2023-03-06T00:37:55.584Z,32.30
2023-03-06T00:38:55.570Z,32.10
2023-03-06T00:39:55.551Z,31.60
2023-03-06T00:40:55.584Z,32.00
2023-03-06T00:41:55.544Z,30.70
2023-03-06T00:42:55.512Z,32.10
2023-03-06T00:43:55.498Z,30.00
2023-03-06T00:44:55.509Z,31.50
2023-03-06T00:45:55.591Z,31.80
2023-03-06T00:46:55.519Z,29.50
2023-03-06T00:47:55.525Z,30.00
2023-03-06T00:48:55.450Z,28.90
2023-03-06T00:49:55.518Z,28.80
2023-03-06T00:50:55.412Z,28.70
2023-03-06T00:51:55.408Z,28.60
2023-03-06T00:52:55.378Z,28.10
2023-03-06T00:53:55.382Z,28.20
2023-03-06T00:54:55.377Z,29.80
2023-03-06T00:55:55.429Z,29.20
2023-03-06T00:56:55.339Z,27.90
2023-03-06T00:57:55.340Z,29.00
2023-03-06T00:58:55.306Z,28.70
2023-03-06T00:59:55.302Z,29.00
2023-03-06T01:00:55.350Z,29.30
2023-03-06T01:01:55.312Z,29.40
2023-03-06T01:02:55.284Z,30.20
2023-03-06T01:03:55.263Z,30.00
2023-03-06T01:04:55.228Z,29.20
2023-03-06T01:05:55.280Z,30.80
2023-03-06T01:06:55.203Z,29.80
2023-03-06T01:07:55.195Z,29.50
2023-03-06T01:08:55.174Z,30.50
2023-03-06T01:09:55.186Z,31.80
2023-03-06T01:10:55.154Z,31.80
2023-03-06T01:11:55.150Z,31.50
2023-03-06T01:12:55.140Z,31.70
2023-03-06T01:13:55.131Z,30.90
2023-03-06T01:14:55.124Z,32.70
2023-03-06T01:15:55.091Z,31.80
2023-03-06T01:16:55.077Z,32.10
2023-03-06T01:17:55.064Z,32.50
2023-03-06T01:18:55.057Z,32.90
2023-03-06T01:19:55.065Z,32.90
2023-03-06T01:20:55.090Z,33.00
2023-03-06T01:21:55.024Z,35.10
2023-03-06T01:22:55.008Z,35.40
2023-03-06T01:23:54.992Z,35.40
2023-03-06T01:24:55.001Z,35.90
2023-03-06T01:25:54.980Z,35.40
2023-03-06T01:26:54.956Z,38.20
2023-03-06T01:27:54.945Z,40.70
2023-03-06T01:28:54.918Z,39.40
2023-03-06T01:29:54.928Z,39.80
2023-03-06T01:30:54.888Z,39.70
2023-03-06T01:31:54.908Z,39.50
2023-03-06T01:32:54.855Z,39.50
2023-03-06T01:33:54.860Z,42.20
2023-03-06T01:34:54.854Z,38.70
2023-03-06T01:35:54.857Z,41.00
2023-03-06T01:36:54.828Z,40.60
2023-03-06T01:37:54.815Z,40.00
2023-03-06T01:38:54.780Z,41.30
2023-03-06T01:39:54.782Z,42.10
2023-03-06T01:40:54.770Z,41.00
2023-03-06T01:41:54.779Z,43.50
2023-03-06T01:42:54.812Z,42.90
2023-03-06T01:43:54.727Z,42.30
2023-03-06T01:44:54.740Z,42.00
2023-03-06T01:45:54.757Z,43.40
2023-03-06T01:46:54.685Z,40.90
2023-03-06T01:47:54.682Z,44.60
2023-03-06T01:48:54.649Z,42.90
2023-03-06T01:49:54.684Z,43.70
2023-03-06T01:50:54.634Z,45.30
2023-03-06T01:51:54.626Z,44.00
2023-03-06T01:52:54.626Z,43.40
2023-03-06T01:53:54.609Z,42.50
2023-03-06T01:54:54.654Z,43.70
2023-03-06T01:55:54.566Z,42.10
2023-03-06T01:56:54.550Z,43.60
2023-03-06T01:57:54.567Z,41.40
2023-03-06T01:58:54.534Z,41.60
2023-03-06T01:59:54.552Z,42.40
2023-03-06T02:00:54.546Z,41.20
2023-03-06T02:01:54.555Z,43.70
2023-03-06T02:02:54.478Z,42.20
2023-03-06T02:03:54.491Z,41.00
2023-03-06T02:04:54.470Z,40.40
2023-03-06T02:05:54.456Z,41.60
2023-03-06T02:06:54.443Z,42.10
2023-03-06T02:07:54.418Z,40.70
2023-03-06T02:08:54.429Z,40.60
2023-03-06T02:09:54.421Z,41.80
2023-03-06T02:10:54.376Z,43.00
2023-03-06T02:11:54.408Z,41.60
2023-03-06T02:12:54.358Z,40.40
2023-03-06T02:13:54.351Z,41.30
2023-03-06T02:14:54.354Z,40.70
2023-03-06T02:15:54.349Z,40.20
2023-03-06T02:16:54.335Z,41.10
2023-03-06T02:17:54.292Z,40.20
2023-03-06T02:18:54.268Z,39.30
2023-03-06T02:19:54.286Z,40.50
2023-03-06T02:20:54.272Z,40.30
2023-03-06T02:21:54.238Z,42.40
2023-03-06T02:22:54.220Z,40.60
2023-03-06T02:23:54.218Z,41.00
2023-03-06T02:24:54.238Z,43.00
2023-03-06T02:25:54.185Z,41.60
2023-03-06T02:26:54.221Z,41.90
2023-03-06T02:27:54.187Z,42.30
2023-03-06T02:28:54.156Z,41.00
2023-03-06T02:29:54.128Z,41.10
2023-03-06T02:30:54.213Z,41.60
2023-03-06T02:31:54.185Z,42.60
2023-03-06T02:32:54.106Z,41.90
2023-03-06T02:33:54.111Z,44.70
2023-03-06T02:34:54.081Z,43.40
2023-03-06T02:35:54.080Z,42.50
2023-03-06T02:36:54.111Z,41.70
2023-03-06T02:37:54.034Z,42.30
2023-03-06T02:38:54.013Z,42.30
2023-03-06T02:39:54.036Z,41.60
2023-03-06T02:40:53.991Z,41.70
2023-03-06T02:41:53.980Z,41.20
2023-03-06T02:42:53.961Z,43.20
2023-03-06T02:43:53.954Z,43.00
2023-03-06T02:44:53.954Z,42.40
2023-03-06T02:45:53.982Z,43.00
2023-03-06T02:46:54.320Z,43.30
2023-03-06T02:47:53.895Z,43.00
2023-03-06T02:48:53.890Z,41.60
2023-03-06T02:49:53.874Z,41.90
2023-03-06T02:50:53.869Z,41.20
2023-03-06T02:51:53.893Z,42.20
2023-03-06T02:52:53.837Z,44.30
2023-03-06T02:53:53.816Z,42.40
2023-03-06T02:54:53.827Z,41.80
2023-03-06T02:55:53.810Z,42.20
2023-03-06T02:56:53.777Z,42.60
2023-03-06T02:57:53.773Z,43.20
2023-03-06T02:58:53.754Z,42.00
2023-03-06T02:59:53.821Z,44.80
2023-03-06T03:00:53.717Z,43.60
2023-03-06T03:01:53.715Z,43.00
2023-03-06T03:02:53.711Z,41.70
2023-03-06T03:03:53.683Z,43.70
2023-03-06T03:04:53.765Z,42.70
2023-03-06T03:05:53.673Z,45.50
2023-03-06T03:06:53.667Z,44.70
2023-03-06T03:07:53.644Z,43.30
2023-03-06T03:08:53.615Z,43.70
2023-03-06T03:09:53.649Z,45.30
2023-03-06T03:10:53.611Z,43.90
2023-03-06T03:11:53.587Z,46.60
2023-03-06T03:12:53.581Z,45.70
2023-03-06T03:13:53.554Z,46.10
2023-03-06T03:14:53.582Z,45.40
2023-03-06T03:15:53.614Z,46.50
2023-03-06T03:16:53.525Z,46.00
2023-03-06T03:17:53.547Z,46.20
2023-03-06T03:18:53.500Z,45.20
2023-03-06T03:19:53.481Z,46.60
2023-03-06T03:20:53.468Z,46.20
2023-03-06T03:21:53.451Z,45.90
2023-03-06T03:22:53.499Z,45.10
2023-03-06T03:23:53.439Z,45.90
2023-03-06T03:24:53.477Z,44.10
2023-03-06T03:25:53.426Z,45.70
2023-03-06T03:26:53.384Z,46.80
2023-03-06T03:27:53.383Z,45.00
2023-03-06T03:28:53.377Z,43.80
2023-03-06T03:29:53.690Z,46.40
2023-03-06T03:30:53.372Z,46.40
2023-03-06T03:31:53.327Z,45.90
2023-03-06T03:32:53.314Z,45.10
2023-03-06T03:33:53.337Z,44.50
2023-03-06T03:34:53.326Z,44.70
2023-03-06T03:35:53.312Z,45.60
2023-03-06T03:36:53.310Z,44.60
2023-03-06T03:37:53.274Z,44.40
2023-03-06T03:38:53.240Z,44.90
2023-03-06T03:39:53.331Z,44.40
2023-03-06T03:40:53.218Z,42.50
2023-03-06T03:41:53.231Z,41.80
2023-03-06T03:42:53.202Z,43.10
2023-03-06T03:43:53.173Z,43.20
2023-03-06T03:44:53.201Z,43.10
2023-03-06T03:45:53.146Z,42.90
2023-03-06T03:46:53.134Z,42.70
2023-03-06T03:47:53.136Z,43.90
2023-03-06T03:48:53.115Z,42.50
2023-03-06T03:49:53.146Z,44.70
2023-03-06T03:50:53.090Z,44.40
2023-03-06T03:51:53.069Z,44.20
2023-03-06T03:52:53.069Z,43.90
2023-03-06T03:53:53.061Z,43.80
2023-03-06T03:54:53.044Z,45.10
2023-03-06T03:55:53.034Z,42.80
2023-03-06T03:56:53.016Z,43.00
2023-03-06T03:57:53.001Z,42.50
2023-03-06T03:58:52.999Z,44.00
2023-03-06T03:59:52.965Z,42.70
2023-03-06T04:00:52.953Z,44.70
2023-03-06T04:01:53.062Z,43.00
2023-03-06T04:02:52.985Z,43.00
2023-03-06T04:03:52.928Z,41.80
2023-03-06T04:04:52.933Z,42.20
2023-03-06T04:05:52.906Z,43.30
2023-03-06T04:06:52.871Z,42.60
2023-03-06T04:07:52.880Z,41.70
2023-03-06T04:08:52.851Z,42.30
2023-03-06T04:09:52.842Z,42.40
2023-03-06T04:10:52.840Z,42.60
2023-03-06T04:11:52.818Z,42.70
2023-03-06T04:12:52.852Z,44.70
2023-03-06T04:13:52.817Z,43.10
2023-03-06T04:14:52.789Z,41.80
2023-03-06T04:15:52.817Z,44.30
2023-03-06T04:16:52.827Z,42.60
2023-03-06T04:17:52.723Z,42.30
2023-03-06T04:18:52.729Z,41.80
2023-03-06T04:19:52.725Z,43.10
2023-03-06T04:20:52.712Z,42.10
2023-03-06T04:21:52.683Z,43.90
2023-03-06T04:22:52.668Z,43.00
2023-03-06T04:23:52.651Z,42.20
2023-03-06T04:24:52.662Z,43.80
2023-03-06T04:25:52.618Z,44.30
2023-03-06T04:26:52.643Z,43.40
2023-03-06T04:27:52.630Z,43.70
2023-03-06T04:28:52.588Z,44.50
2023-03-06T04:29:52.605Z,42.10
2023-03-06T04:30:52.583Z,41.80
2023-03-06T04:31:52.554Z,43.90
2023-03-06T04:32:52.556Z,41.90
2023-03-06T04:33:52.528Z,44.10
2023-03-06T04:34:52.529Z,40.80
2023-03-06T04:35:52.538Z,41.70
2023-03-06T04:36:52.491Z,41.80
2023-03-06T04:37:52.497Z,45.40
2023-03-06T04:38:52.497Z,44.50
2023-03-06T04:39:52.442Z,45.80
2023-03-06T04:40:52.447Z,46.20
2023-03-06T04:41:52.418Z,46.20
2023-03-06T04:42:52.428Z,46.40
2023-03-06T04:43:52.410Z,46.90
2023-03-06T04:44:52.400Z,48.60
2023-03-06T04:45:52.445Z,48.90
2023-03-06T04:46:52.356Z,48.70
2023-03-06T04:47:52.344Z,51.40
2023-03-06T04:48:52.347Z,51.50
2023-03-06T04:49:52.339Z,50.30
2023-03-06T04:50:52.328Z,53.30
2023-03-06T04:51:52.307Z,51.30
2023-03-06T04:52:52.293Z,51.90
2023-03-06T04:53:52.271Z,54.30
2023-03-06T04:54:52.293Z,51.70
2023-03-06T04:55:52.261Z,53.20
2023-03-06T04:56:52.241Z,53.80
2023-03-06T04:57:52.220Z,52.90
2023-03-06T04:58:52.217Z,58.40
2023-03-06T04:59:52.214Z,54.30
2023-03-06T05:00:52.233Z,56.50
2023-03-06T05:01:52.240Z,56.80
2023-03-06T05:02:52.169Z,56.00
2023-03-06T05:03:52.148Z,56.40
2023-03-06T05:04:52.144Z,56.60
2023-03-06T05:05:52.117Z,57.80
2023-03-06T05:06:52.110Z,56.70
2023-03-06T05:07:52.090Z,54.70
2023-03-06T05:08:52.090Z,54.50
2023-03-06T05:09:52.050Z,57.90
2023-03-06T05:10:52.125Z,57.30
2023-03-06T05:11:52.060Z,58.40
2023-03-06T05:12:52.020Z,58.60
2023-03-06T05:13:52.049Z,57.80
2023-03-06T05:14:52.013Z,58.50
2023-03-06T05:15:51.975Z,59.20
2023-03-06T05:16:51.966Z,59.70
2023-03-06T05:17:51.956Z,60.00
2023-03-06T05:18:51.972Z,58.30
2023-03-06T05:19:51.973Z,60.30
2023-03-06T05:20:51.926Z,61.50
2023-03-06T05:21:51.899Z,61.30
2023-03-06T05:22:51.892Z,60.00
2023-03-06T05:23:51.874Z,59.00
2023-03-06T05:24:51.908Z,60.50
2023-03-06T05:25:51.864Z,60.80
2023-03-06T05:26:51.848Z,61.10
2023-03-06T05:27:51.841Z,60.50
2023-03-06T05:28:51.845Z,61.10
2023-03-06T05:29:51.804Z,59.30
2023-03-06T05:30:51.794Z,63.30
2023-03-06T05:31:51.826Z,60.70
2023-03-06T05:32:51.806Z,58.20
2023-03-06T05:33:51.778Z,61.10
2023-03-06T05:34:51.763Z,60.00
2023-03-06T05:35:51.939Z,60.20
2023-03-06T05:36:51.721Z,58.80
2023-03-06T05:37:51.656Z,57.60
2023-03-06T05:38:51.710Z,57.70
2023-03-06T05:39:51.694Z,55.00
2023-03-06T05:40:51.666Z,57.70
2023-03-06T05:41:51.608Z,54.20
2023-03-06T05:42:51.588Z,57.70
2023-03-06T05:43:51.581Z,58.50
2023-03-06T05:44:51.559Z,61.10
2023-03-06T05:45:51.611Z,56.00
2023-03-06T05:46:51.533Z,55.10
2023-03-06T05:47:51.528Z,56.20
2023-03-06T05:48:51.542Z,55.70
2023-03-06T05:49:51.520Z,54.90
2023-03-06T05:50:51.491Z,56.50
2023-03-06T05:51:51.480Z,56.50
2023-03-06T05:52:51.464Z,55.50
2023-03-06T05:53:51.457Z,53.50
2023-03-06T05:54:51.454Z,53.80
2023-03-06T05:55:51.406Z,54.00
2023-03-06T05:56:51.417Z,56.00
2023-03-06T05:57:51.386Z,57.40
2023-03-06T05:58:51.382Z,55.20
2023-03-06T05:59:51.395Z,54.50
2023-03-06T06:00:51.377Z,54.10
2023-03-06T06:01:51.325Z,54.10
2023-03-06T06:02:51.339Z,54.60
2023-03-06T06:03:51.352Z,53.60
2023-03-06T06:04:51.315Z,53.00
2023-03-06T06:05:51.279Z,53.30
2023-03-06T06:06:51.278Z,53.30
2023-03-06T06:07:51.336Z,49.00
2023-03-06T06:08:51.235Z,51.50
2023-03-06T06:09:51.250Z,50.20
2023-03-06T06:10:53.406Z,50.10
2023-03-06T06:11:51.199Z,52.50
2023-03-06T06:12:51.197Z,53.40
2023-03-06T06:13:51.210Z,53.90
2023-03-06T06:14:51.191Z,51.70
2023-03-06T06:15:51.177Z,52.20
2023-03-06T06:16:51.138Z,49.00
2023-03-06T06:17:51.128Z,47.40
2023-03-06T06:18:51.119Z,51.90
2023-03-06T06:19:51.117Z,51.00
2023-03-06T06:20:51.087Z,50.10
2023-03-06T06:21:51.102Z,50.30
2023-03-06T06:22:51.080Z,52.40
2023-03-06T06:23:51.058Z,51.30
2023-03-06T06:24:51.059Z,50.20
2023-03-06T06:25:51.022Z,51.60
2023-03-06T06:26:51.007Z,51.60
2023-03-06T06:27:51.010Z,50.50
2023-03-06T06:28:51.010Z,50.60
2023-03-06T06:29:50.980Z,52.20
2023-03-06T06:30:51.016Z,53.10
2023-03-06T06:31:50.952Z,53.40
2023-03-06T06:32:50.948Z,53.60
2023-03-06T06:33:50.941Z,51.50
2023-03-06T06:34:50.939Z,51.50
2023-03-06T06:35:50.941Z,52.10
2023-03-06T06:36:53.237Z,51.50
2023-03-06T06:37:50.861Z,53.10
2023-03-06T06:38:50.877Z,53.80
2023-03-06T06:39:50.873Z,54.60
2023-03-06T06:41:25.499Z,54.80
2023-03-06T06:42:06.361Z,52.50
2023-03-06T06:42:50.812Z,52.60
2023-03-06T06:43:50.826Z,53.90
2023-03-06T06:44:50.801Z,54.60
2023-03-06T06:45:50.773Z,53.90
2023-03-06T06:47:50.817Z,54.00
2023-03-06T06:48:50.730Z,52.40
2023-03-06T06:49:50.749Z,54.70
2023-03-06T06:50:50.712Z,54.50
2023-03-06T06:51:50.698Z,51.80
2023-03-06T06:52:50.707Z,54.20
2023-03-06T06:53:50.689Z,52.70
2023-03-06T06:54:50.697Z,50.90
2023-03-06T06:55:50.630Z,52.90
2023-03-06T06:56:50.623Z,52.10
2023-03-06T06:57:50.659Z,50.80
2023-03-06T06:58:50.603Z,52.30
2023-03-06T06:59:52.516Z,53.60
2023-03-06T07:00:50.606Z,52.50
2023-03-06T07:01:50.609Z,52.30
2023-03-06T07:02:50.557Z,49.90
2023-03-06T07:03:50.606Z,50.90
2023-03-06T07:05:02.977Z,51.00
2023-03-06T07:05:50.527Z,50.00
2023-03-06T07:06:50.538Z,51.70
2023-03-06T07:07:50.478Z,51.60
2023-03-06T07:08:50.476Z,49.40
2023-03-06T07:09:50.473Z,48.60
2023-03-06T07:10:50.450Z,47.80
2023-03-06T07:11:50.429Z,46.40
2023-03-06T07:12:50.424Z,49.40
2023-03-06T07:13:50.417Z,47.90
2023-03-06T07:14:50.435Z,48.10
2023-03-06T07:15:50.425Z,47.80
2023-03-06T07:16:50.368Z,46.20
2023-03-06T07:17:50.507Z,46.80
2023-03-06T07:18:50.333Z,47.20
2023-03-06T07:19:50.506Z,45.80
2023-03-06T07:20:50.312Z,47.70
2023-03-06T07:21:50.293Z,48.30
2023-03-06T07:22:51.832Z,45.80
2023-03-06T07:23:50.284Z,46.40
2023-03-06T07:24:50.297Z,45.30
2023-03-06T07:25:50.245Z,46.20
2023-03-06T07:26:50.228Z,46.80
2023-03-06T07:27:53.764Z,48.30
2023-03-06T07:28:52.881Z,49.10
2023-03-06T07:29:50.238Z,47.80
2023-03-06T07:30:50.193Z,48.00
2023-03-06T07:31:50.164Z,47.40
2023-03-06T07:32:50.152Z,47.80
2023-03-06T07:33:50.144Z,49.40
2023-03-06T07:34:50.211Z,45.20
2023-03-06T07:35:50.203Z,45.80
2023-03-06T07:36:50.097Z,44.40
2023-03-06T07:37:50.119Z,46.50
2023-03-06T07:38:50.091Z,47.50
2023-03-06T07:39:50.076Z,46.00
2023-03-06T07:40:50.051Z,47.60
2023-03-06T07:41:50.036Z,46.70
2023-03-06T07:42:50.048Z,46.10
2023-03-06T07:43:50.018Z,46.00
2023-03-06T07:44:50.032Z,46.50
2023-03-06T07:45:49.992Z,45.80
2023-03-06T07:46:49.997Z,44.90
2023-03-06T07:47:49.974Z,44.40
2023-03-06T07:48:49.949Z,42.40
2023-03-06T07:49:49.966Z,43.30
2023-03-06T07:50:49.923Z,43.80
2023-03-06T07:51:49.923Z,42.60
2023-03-06T07:52:49.894Z,42.20
2023-03-06T07:53:49.879Z,44.20
2023-03-06T07:54:49.897Z,44.70
2023-03-06T07:55:49.866Z,42.80
2023-03-06T07:56:49.839Z,43.10
2023-03-06T07:57:49.847Z,42.20
2023-03-06T07:58:49.831Z,42.80
2023-03-06T07:59:49.837Z,42.50
2023-03-06T08:00:49.826Z,42.60
2023-03-06T08:01:49.794Z,42.90
2023-03-06T08:02:49.795Z,42.10
2023-03-06T08:03:49.838Z,42.50
2023-03-06T08:04:49.769Z,42.40
2023-03-06T08:05:49.736Z,42.90
2023-03-06T08:06:49.717Z,41.80
2023-03-06T08:07:49.712Z,43.70
2023-03-06T08:08:49.705Z,45.10
2023-03-06T08:09:49.914Z,44.20
2023-03-06T08:10:49.666Z,45.10
2023-03-06T08:11:49.671Z,45.90
2023-03-06T08:12:49.650Z,44.20
2023-03-06T08:13:49.630Z,46.10
2023-03-06T08:14:49.635Z,46.60
2023-03-06T08:15:49.629Z,45.60
2023-03-06T08:16:49.622Z,46.70
2023-03-06T08:17:49.608Z,48.00
2023-03-06T08:18:49.572Z,49.00
2023-03-06T08:19:49.573Z,45.80
2023-03-06T08:20:49.521Z,48.70
2023-03-06T08:21:49.507Z,50.10
2023-03-06T08:22:49.507Z,50.00
2023-03-06T08:23:49.490Z,51.90
2023-03-06T08:24:49.490Z,50.90
2023-03-06T08:25:49.471Z,49.40
2023-03-06T08:26:49.460Z,49.20
2023-03-06T08:27:49.471Z,51.20
2023-03-06T08:28:49.430Z,50.80
2023-03-06T08:29:49.431Z,50.10
2023-03-06T08:30:49.395Z,50.80
2023-03-06T08:31:49.448Z,50.30
2023-03-06T08:32:49.374Z,49.90
2023-03-06T08:33:49.374Z,50.20
2023-03-06T08:34:49.648Z,50.70
2023-03-06T08:35:49.424Z,49.60
2023-03-06T08:36:49.359Z,52.50
2023-03-06T08:37:49.305Z,52.50
2023-03-06T08:38:49.300Z,51.90
2023-03-06T08:39:49.306Z,51.50
2023-03-06T08:40:49.271Z,51.60
2023-03-06T08:41:49.257Z,51.70
2023-03-06T08:42:49.238Z,50.80
2023-03-06T08:43:49.231Z,51.30
2023-03-06T08:44:49.235Z,54.80
2023-03-06T08:45:49.244Z,50.70
2023-03-06T08:46:49.203Z,53.30
2023-03-06T08:47:49.255Z,54.70
2023-03-06T08:48:49.191Z,52.90
2023-03-06T08:49:49.179Z,49.10
2023-03-06T08:50:49.132Z,48.30
2023-03-06T08:51:49.131Z,50.30
2023-03-06T08:52:49.120Z,46.60
2023-03-06T08:53:49.185Z,51.10
2023-03-06T08:54:49.129Z,51.20
2023-03-06T08:55:49.098Z,50.70
2023-03-06T08:56:49.059Z,52.30
2023-03-06T08:57:49.051Z,50.70
2023-03-06T08:58:49.024Z,49.10
2023-03-06T08:59:49.022Z,49.40
2023-03-06T09:00:49.089Z,46.80
2023-03-06T09:01:48.992Z,49.50
2023-03-06T09:02:48.972Z,47.60
2023-03-06T09:03:48.969Z,49.60
2023-03-06T09:04:48.949Z,50.00
2023-03-06T09:05:48.955Z,48.30
2023-03-06T09:06:48.921Z,47.70
2023-03-06T09:07:48.916Z,46.40
2023-03-06T09:08:48.912Z,48.40
2023-03-06T09:09:48.913Z,47.80
2023-03-06T09:10:48.896Z,45.30
2023-03-06T09:11:48.873Z,46.60
2023-03-06T09:12:51.384Z,44.80
2023-03-06T09:13:48.854Z,44.70
2023-03-06T09:14:48.867Z,45.10
2023-03-06T09:15:48.833Z,47.10
2023-03-06T09:16:48.882Z,47.90
2023-03-06T09:17:48.834Z,46.20
2023-03-06T09:18:48.775Z,46.20
2023-03-06T09:19:48.785Z,47.40
2023-03-06T09:20:48.744Z,47.60
2023-03-06T09:21:48.735Z,48.70
2023-03-06T09:22:48.722Z,47.10
2023-03-06T09:23:48.719Z,48.00
2023-03-06T09:24:48.713Z,46.50
2023-03-06T09:25:48.703Z,46.70
2023-03-06T09:26:50.491Z,47.60
2023-03-06T09:27:53.429Z,45.30
2023-03-06T09:28:48.651Z,44.60
2023-03-06T09:29:48.632Z,47.70
2023-03-06T09:30:48.708Z,45.60
2023-03-06T09:31:48.611Z,45.10
2023-03-06T09:32:48.595Z,45.10
2023-03-06T09:33:48.612Z,44.30
2023-03-06T09:34:48.581Z,46.20
2023-03-06T09:35:48.726Z,44.90
2023-03-06T09:36:56.456Z,46.00
2023-03-06T09:37:48.537Z,45.70
2023-03-06T09:38:48.531Z,46.80
2023-03-06T09:39:48.522Z,48.00
2023-03-06T09:40:48.476Z,45.60
2023-03-06T09:41:48.495Z,49.50
2023-03-06T09:42:48.488Z,46.30
2023-03-06T09:43:48.459Z,46.80
2023-03-06T09:44:48.768Z,47.80
2023-03-06T09:45:48.509Z,46.30
2023-03-06T09:46:48.412Z,46.40
2023-03-06T09:47:48.401Z,49.00
2023-03-06T09:48:48.391Z,48.20
2023-03-06T09:49:48.377Z,45.40
2023-03-06T09:50:48.383Z,48.40
2023-03-06T09:51:48.349Z,47.60
2023-03-06T09:52:48.327Z,48.10
2023-03-06T09:53:48.321Z,49.10
2023-03-06T09:54:48.300Z,49.30
2023-03-06T09:55:48.325Z,46.70
2023-03-06T09:56:48.280Z,46.70
2023-03-06T09:57:48.263Z,45.90
2023-03-06T09:58:48.254Z,45.80
2023-03-06T09:59:48.270Z,43.60
2023-03-06T10:00:48.245Z,44.30
2023-03-06T10:01:48.218Z,43.10
2023-03-06T10:02:48.336Z,44.20
2023-03-06T10:03:48.190Z,41.60
2023-03-06T10:04:48.200Z,45.00
2023-03-06T10:05:48.197Z,44.10
2023-03-06T10:06:48.141Z,43.60
2023-03-06T10:07:48.154Z,42.50
2023-03-06T10:08:48.113Z,43.80
2023-03-06T10:09:48.117Z,44.20
2023-03-06T10:10:48.104Z,43.50
2023-03-06T10:11:48.111Z,44.80
2023-03-06T10:12:48.062Z,43.70
2023-03-06T10:13:48.071Z,42.10
2023-03-06T10:14:49.352Z,44.30
2023-03-06T10:15:48.111Z,41.50
2023-03-06T10:16:48.041Z,42.00
2023-03-06T10:17:54.020Z,40.20
2023-03-06T10:18:48.002Z,41.70
2023-03-06T10:19:47.981Z,41.50
2023-03-06T10:20:47.976Z,41.90
2023-03-06T10:21:47.997Z,41.30
2023-03-06T10:23:00.058Z,40.50
2023-03-06T10:23:47.941Z,40.70
2023-03-06T10:24:47.910Z,40.10
2023-03-06T10:25:47.909Z,43.60
2023-03-06T10:26:47.961Z,44.40
2023-03-06T10:27:47.872Z,44.20
2023-03-06T10:28:47.851Z,47.10
2023-03-06T10:30:01.539Z,48.80
2023-03-06T10:30:47.892Z,48.80
2023-03-06T10:31:48.427Z,48.50
2023-03-06T10:32:49.306Z,46.20
2023-03-06T10:33:47.795Z,43.00
2023-03-06T10:34:47.779Z,46.70
2023-03-06T10:35:47.848Z,40.70
2023-03-06T10:36:47.746Z,43.80
2023-03-06T10:37:47.750Z,45.10
2023-03-06T10:38:47.725Z,42.20
2023-03-06T10:39:47.729Z,45.00
2023-03-06T10:40:47.763Z,46.50
2023-03-06T10:41:47.700Z,46.90
2023-03-06T10:42:47.679Z,44.00
2023-03-06T10:43:47.681Z,41.30
2023-03-06T10:44:47.654Z,40.20
2023-03-06T10:45:49.457Z,39.60
2023-03-06T10:46:47.838Z,38.90
2023-03-06T10:47:47.622Z,37.70
2023-03-06T10:48:47.599Z,38.80
2023-03-06T10:49:47.593Z,37.30
2023-03-06T10:50:47.582Z,38.20
2023-03-06T10:51:47.700Z,39.20
2023-03-06T10:52:47.586Z,40.00
2023-03-06T10:53:47.547Z,38.80
2023-03-06T10:54:47.566Z,40.70
2023-03-06T10:55:47.551Z,40.20
2023-03-06T10:56:47.517Z,44.70
2023-03-06T10:57:47.496Z,43.20
2023-03-06T10:58:47.465Z,45.30
2023-03-06T10:59:47.469Z,48.10
2023-03-06T11:00:47.492Z,46.60
2023-03-06T11:01:47.494Z,46.30
2023-03-06T11:02:47.410Z,50.50
2023-03-06T11:03:47.417Z,49.10
2023-03-06T11:04:47.414Z,46.80
2023-03-06T11:05:47.397Z,48.80
2023-03-06T11:06:47.395Z,49.10
2023-03-06T11:07:47.351Z,48.00
2023-03-06T11:08:47.343Z,50.50
2023-03-06T11:09:47.331Z,49.60
2023-03-06T11:10:47.316Z,50.20
2023-03-06T11:11:47.342Z,49.10
2023-03-06T11:12:47.291Z,47.00
2023-03-06T11:13:47.279Z,45.40
2023-03-06T11:14:47.252Z,46.90
2023-03-06T11:15:47.261Z,47.00
2023-03-06T11:16:47.264Z,47.70
2023-03-06T11:17:47.234Z,46.70
2023-03-06T11:18:47.220Z,49.00
2023-03-06T11:19:47.205Z,47.90
2023-03-06T11:20:54.128Z,50.00
2023-03-06T11:21:47.189Z,52.00
2023-03-06T11:22:49.146Z,47.50
2023-03-06T11:23:47.158Z,47.20
2023-03-06T11:24:47.132Z,45.90
2023-03-06T11:25:47.164Z,45.20
2023-03-06T11:26:47.134Z,47.80
2023-03-06T11:27:47.088Z,46.60
2023-03-06T11:28:47.167Z,46.30
2023-03-06T11:29:47.074Z,46.00
2023-03-06T11:30:47.040Z,47.50
2023-03-06T11:31:47.133Z,47.90
2023-03-06T11:32:47.015Z,44.60
2023-03-06T11:33:47.010Z,45.40
2023-03-06T11:34:49.220Z,44.30
2023-03-06T11:35:47.047Z,44.40
2023-03-06T11:36:47.020Z,43.70
2023-03-06T11:37:47.059Z,42.30
2023-03-06T11:38:46.948Z,42.00
2023-03-06T11:39:46.930Z,42.00
2023-03-06T11:40:46.929Z,40.20
2023-03-06T11:41:46.914Z,41.70
2023-03-06T11:42:46.890Z,39.10
2023-03-06T11:43:46.898Z,38.70
2023-03-06T11:44:46.854Z,36.50
2023-03-06T11:45:46.873Z,36.80
2023-03-06T11:46:46.975Z,37.20
2023-03-06T11:47:46.832Z,36.40
2023-03-06T11:48:46.812Z,35.40
2023-03-06T11:49:46.797Z,33.90
2023-03-06T11:50:46.856Z,35.80
2023-03-06T11:51:46.792Z,35.90
2023-03-06T11:52:46.784Z,35.90
2023-03-06T11:53:47.722Z,36.90
2023-03-06T11:54:46.732Z,36.20
2023-03-06T11:55:46.750Z,35.70
2023-03-06T11:56:46.708Z,35.60
2023-03-06T11:57:46.692Z,36.50
2023-03-06T11:58:46.682Z,37.50
2023-03-06T11:59:46.686Z,35.70
2023-03-06T12:00:46.687Z,37.50
2023-03-06T12:01:46.684Z,37.20
2023-03-06T12:02:46.634Z,36.60
2023-03-06T12:03:46.622Z,36.30
2023-03-06T12:04:46.627Z,34.70
2023-03-06T12:05:46.765Z,35.50
2023-03-06T12:06:46.603Z,36.00
2023-03-06T12:07:46.609Z,35.80
2023-03-06T12:08:46.563Z,36.30
2023-03-06T12:09:46.581Z,36.60
2023-03-06T12:10:51.496Z,35.60
2023-03-06T12:11:46.560Z,38.30
2023-03-06T12:12:46.529Z,35.10
2023-03-06T12:13:46.500Z,36.40
2023-03-06T12:14:46.480Z,36.60
2023-03-06T12:15:46.461Z,38.00
2023-03-06T12:16:46.598Z,36.60
2023-03-06T12:17:46.451Z,36.10
2023-03-06T12:18:46.524Z,36.10
2023-03-06T12:19:46.407Z,37.70
2023-03-06T12:20:46.417Z,37.30
2023-03-06T12:21:46.382Z,37.00
2023-03-06T12:22:57.419Z,36.50
2023-03-06T12:23:46.365Z,36.50
2023-03-06T12:24:46.370Z,36.80
2023-03-06T12:25:46.349Z,36.70
2023-03-06T12:26:46.340Z,37.80
2023-03-06T12:27:46.315Z,36.60
2023-03-06T12:28:46.536Z,37.20
2023-03-06T12:29:46.290Z,38.00
2023-03-06T12:30:46.289Z,37.20
2023-03-06T12:31:46.413Z,37.50
2023-03-06T12:32:46.270Z,35.40
2023-03-06T12:33:46.222Z,35.40
2023-03-06T12:34:46.216Z,36.50
2023-03-06T12:35:46.249Z,35.30
2023-03-06T12:36:46.216Z,37.70
2023-03-06T12:37:47.143Z,37.50
2023-03-06T12:38:46.178Z,36.30
2023-03-06T12:39:46.162Z,37.80
2023-03-06T12:40:46.155Z,36.90
2023-03-06T12:41:46.119Z,38.20
2023-03-06T12:42:46.133Z,36.70
2023-03-06T12:43:46.092Z,37.50
2023-03-06T12:44:46.084Z,37.60
2023-03-06T12:45:46.131Z,37.70
2023-03-06T12:46:46.064Z,37.80
2023-03-06T12:47:46.141Z,36.80
2023-03-06T12:48:46.048Z,37.10
2023-03-06T12:49:47.472Z,34.60
2023-03-06T12:50:46.022Z,37.00
2023-03-06T12:51:46.020Z,33.70
2023-03-06T12:52:45.985Z,35.10
2023-03-06T12:53:45.956Z,36.90